sensor_id;sensor_type;location;lat;lon;timestamp;P1;durP1;ratioP1;P2;durP2;ratioP2
76714;SDS011;65644;44.990;20.288;2024-01-10T00:02:04;37.20;;;21.50;;
76714;SDS011;65644;44.990;20.288;2024-01-10T00:04:30;43.97;;;25.03;;
76714;SDS011;65644;44.990;20.288;2024-01-10T00:06:56;38.83;;;23.17;;
76714;SDS011;65644;44.990;20.288;2024-01-10T00:09:22;39.63;;;23.13;;
76714;SDS011;65644;44.990;20.288;2024-01-10T00:11:48;38.87;;;23.27;;
76714;SDS011;65644;44.990;20.288;2024-01-10T00:14:14;41.00;;;23.43;;
76714;SDS011;65644;44.990;20.288;2024-01-10T00:16:41;38.23;;;23.13;;
76714;SDS011;65644;44.990;20.288;2024-01-10T00:19:07;40.67;;;23.97;;
76714;SDS011;65644;44.990;20.288;2024-01-10T00:21:33;46.33;;;24.77;;
76714;SDS011;65644;44.990;20.288;2024-01-10T00:24:01;38.63;;;22.47;;
76714;SDS011;65644;44.990;20.288;2024-01-10T00:26:27;44.27;;;25.13;;
76714;SDS011;65644;44.990;20.288;2024-01-10T00:28:53;36.20;;;22.00;;
76714;SDS011;65644;44.990;20.288;2024-01-10T00:31:19;37.90;;;21.50;;
76714;SDS011;65644;44.990;20.288;2024-01-10T00:33:45;42.30;;;24.37;;
76714;SDS011;65644;44.990;20.288;2024-01-10T00:36:11;35.50;;;21.40;;
76714;SDS011;65644;44.990;20.288;2024-01-10T00:38:37;35.63;;;21.20;;
76714;SDS011;65644;44.990;20.288;2024-01-10T00:41:03;38.93;;;22.17;;
76714;SDS011;65644;44.990;20.288;2024-01-10T00:43:29;39.73;;;22.93;;
76714;SDS011;65644;44.990;20.288;2024-01-10T00:45:55;34.47;;;21.23;;
76714;SDS011;65644;44.990;20.288;2024-01-10T00:48:21;31.67;;;18.33;;
76714;SDS011;65644;44.990;20.288;2024-01-10T00:50:47;29.83;;;18.40;;
76714;SDS011;65644;44.990;20.288;2024-01-10T00:53:14;31.93;;;19.27;;
76714;SDS011;65644;44.990;20.288;2024-01-10T00:55:40;27.73;;;16.90;;
76714;SDS011;65644;44.990;20.288;2024-01-10T00:58:06;28.27;;;16.97;;
76714;SDS011;65644;44.990;20.288;2024-01-10T01:00:32;26.70;;;16.83;;
76714;SDS011;65644;44.990;20.288;2024-01-10T01:02:58;29.63;;;16.73;;
76714;SDS011;65644;44.990;20.288;2024-01-10T01:05:24;25.90;;;15.70;;
76714;SDS011;65644;44.990;20.288;2024-01-10T01:07:50;26.97;;;16.33;;
76714;SDS011;65644;44.990;20.288;2024-01-10T01:10:16;27.87;;;16.03;;
76714;SDS011;65644;44.990;20.288;2024-01-10T01:12:42;28.20;;;15.90;;
76714;SDS011;65644;44.990;20.288;2024-01-10T01:15:08;27.47;;;17.27;;
76714;SDS011;65644;44.990;20.288;2024-01-10T01:17:35;25.13;;;15.07;;
76714;SDS011;65644;44.990;20.288;2024-01-10T01:20:01;28.07;;;16.33;;
76714;SDS011;65644;44.990;20.288;2024-01-10T01:22:29;27.53;;;16.37;;
76714;SDS011;65644;44.990;20.288;2024-01-10T01:24:56;27.90;;;17.00;;
76714;SDS011;65644;44.990;20.288;2024-01-10T01:27:22;30.27;;;17.90;;
76714;SDS011;65644;44.990;20.288;2024-01-10T01:29:48;27.57;;;16.57;;
76714;SDS011;65644;44.990;20.288;2024-01-10T01:32:15;27.97;;;16.00;;
76714;SDS011;65644;44.990;20.288;2024-01-10T01:34:41;26.33;;;16.30;;
76714;SDS011;65644;44.990;20.288;2024-01-10T01:37:07;27.43;;;16.87;;
76714;SDS011;65644;44.990;20.288;2024-01-10T01:39:33;34.57;;;17.90;;
76714;SDS011;65644;44.990;20.288;2024-01-10T01:41:59;25.10;;;16.33;;
76714;SDS011;65644;44.990;20.288;2024-01-10T01:44:25;28.07;;;16.83;;
76714;SDS011;65644;44.990;20.288;2024-01-10T01:46:51;28.40;;;17.47;;
76714;SDS011;65644;44.990;20.288;2024-01-10T01:49:17;26.90;;;15.63;;
76714;SDS011;65644;44.990;20.288;2024-01-10T01:51:43;27.57;;;16.60;;
76714;SDS011;65644;44.990;20.288;2024-01-10T01:54:09;24.23;;;15.70;;
76714;SDS011;65644;44.990;20.288;2024-01-10T01:56:36;25.07;;;14.80;;
76714;SDS011;65644;44.990;20.288;2024-01-10T01:59:03;27.33;;;16.50;;
76714;SDS011;65644;44.990;20.288;2024-01-10T02:01:30;34.37;;;17.07;;
76714;SDS011;65644;44.990;20.288;2024-01-10T02:03:56;27.40;;;16.27;;
76714;SDS011;65644;44.990;20.288;2024-01-10T02:06:22;27.33;;;16.67;;
76714;SDS011;65644;44.990;20.288;2024-01-10T02:08:48;25.20;;;16.40;;
76714;SDS011;65644;44.990;20.288;2024-01-10T02:11:17;27.50;;;15.23;;
76714;SDS011;65644;44.990;20.288;2024-01-10T02:13:43;25.20;;;14.47;;
76714;SDS011;65644;44.990;20.288;2024-01-10T02:16:09;24.30;;;14.03;;
76714;SDS011;65644;44.990;20.288;2024-01-10T02:18:35;25.67;;;15.27;;
76714;SDS011;65644;44.990;20.288;2024-01-10T02:21:01;28.63;;;16.13;;
76714;SDS011;65644;44.990;20.288;2024-01-10T02:23:27;28.10;;;15.00;;
76714;SDS011;65644;44.990;20.288;2024-01-10T02:25:54;34.03;;;17.77;;
76714;SDS011;65644;44.990;20.288;2024-01-10T02:28:20;24.13;;;13.87;;
76714;SDS011;65644;44.990;20.288;2024-01-10T02:30:48;22.87;;;13.47;;
76714;SDS011;65644;44.990;20.288;2024-01-10T02:33:14;30.97;;;16.80;;
76714;SDS011;65644;44.990;20.288;2024-01-10T02:35:40;42.07;;;22.03;;
76714;SDS011;65644;44.990;20.288;2024-01-10T02:38:06;61.73;;;30.77;;
76714;SDS011;65644;44.990;20.288;2024-01-10T02:40:32;40.13;;;22.67;;
76714;SDS011;65644;44.990;20.288;2024-01-10T02:42:58;53.50;;;24.97;;
76714;SDS011;65644;44.990;20.288;2024-01-10T02:45:24;40.07;;;21.40;;
76714;SDS011;65644;44.990;20.288;2024-01-10T02:47:51;71.13;;;33.50;;
76714;SDS011;65644;44.990;20.288;2024-01-10T02:50:17;29.17;;;16.87;;
76714;SDS011;65644;44.990;20.288;2024-01-10T02:52:43;27.87;;;17.37;;
76714;SDS011;65644;44.990;20.288;2024-01-10T02:55:09;52.07;;;25.80;;
76714;SDS011;65644;44.990;20.288;2024-01-10T02:57:35;29.80;;;16.73;;
76714;SDS011;65644;44.990;20.288;2024-01-10T03:00:01;25.77;;;17.20;;
76714;SDS011;65644;44.990;20.288;2024-01-10T03:02:29;36.27;;;19.37;;
76714;SDS011;65644;44.990;20.288;2024-01-10T03:04:55;61.80;;;31.20;;
76714;SDS011;65644;44.990;20.288;2024-01-10T03:07:21;60.70;;;32.27;;
76714;SDS011;65644;44.990;20.288;2024-01-10T03:09:50;31.13;;;17.67;;
76714;SDS011;65644;44.990;20.288;2024-01-10T03:12:16;29.10;;;17.70;;
76714;SDS011;65644;44.990;20.288;2024-01-10T03:14:42;27.17;;;17.13;;
76714;SDS011;65644;44.990;20.288;2024-01-10T03:17:08;32.00;;;19.33;;
76714;SDS011;65644;44.990;20.288;2024-01-10T03:19:34;32.50;;;19.47;;
76714;SDS011;65644;44.990;20.288;2024-01-10T03:22:02;30.03;;;18.43;;
76714;SDS011;65644;44.990;20.288;2024-01-10T03:24:28;29.57;;;19.00;;
76714;SDS011;65644;44.990;20.288;2024-01-10T03:26:54;27.37;;;17.20;;
76714;SDS011;65644;44.990;20.288;2024-01-10T03:29:20;29.77;;;17.30;;
76714;SDS011;65644;44.990;20.288;2024-01-10T03:31:46;28.83;;;17.20;;
76714;SDS011;65644;44.990;20.288;2024-01-10T03:34:12;33.00;;;18.03;;
76714;SDS011;65644;44.990;20.288;2024-01-10T03:36:39;26.67;;;17.27;;
76714;SDS011;65644;44.990;20.288;2024-01-10T03:39:05;28.73;;;16.93;;
76714;SDS011;65644;44.990;20.288;2024-01-10T03:41:31;25.07;;;15.63;;
76714;SDS011;65644;44.990;20.288;2024-01-10T03:43:57;24.70;;;16.53;;
76714;SDS011;65644;44.990;20.288;2024-01-10T03:46:23;29.23;;;17.43;;
76714;SDS011;65644;44.990;20.288;2024-01-10T03:48:49;28.87;;;17.53;;
76714;SDS011;65644;44.990;20.288;2024-01-10T03:51:18;23.23;;;15.87;;
76714;SDS011;65644;44.990;20.288;2024-01-10T03:53:45;30.03;;;16.30;;
76714;SDS011;65644;44.990;20.288;2024-01-10T03:56:11;25.00;;;15.47;;
76714;SDS011;65644;44.990;20.288;2024-01-10T03:58:38;23.40;;;14.40;;
76714;SDS011;65644;44.990;20.288;2024-01-10T04:01:07;20.80;;;13.93;;
76714;SDS011;65644;44.990;20.288;2024-01-10T04:03:34;24.97;;;14.00;;
76714;SDS011;65644;44.990;20.288;2024-01-10T04:06:00;27.60;;;17.03;;
76714;SDS011;65644;44.990;20.288;2024-01-10T04:08:26;21.10;;;13.03;;
76714;SDS011;65644;44.990;20.288;2024-01-10T04:10:53;24.67;;;14.77;;
76714;SDS011;65644;44.990;20.288;2024-01-10T04:13:19;18.77;;;12.93;;
76714;SDS011;65644;44.990;20.288;2024-01-10T04:15:45;21.83;;;13.03;;
76714;SDS011;65644;44.990;20.288;2024-01-10T04:18:11;24.63;;;12.97;;
76714;SDS011;65644;44.990;20.288;2024-01-10T04:20:37;22.03;;;12.53;;
76714;SDS011;65644;44.990;20.288;2024-01-10T04:23:03;23.30;;;12.93;;
76714;SDS011;65644;44.990;20.288;2024-01-10T04:25:29;22.17;;;13.27;;
76714;SDS011;65644;44.990;20.288;2024-01-10T04:27:55;19.63;;;12.77;;
76714;SDS011;65644;44.990;20.288;2024-01-10T04:30:22;17.87;;;11.63;;
76714;SDS011;65644;44.990;20.288;2024-01-10T04:32:48;22.20;;;11.80;;
76714;SDS011;65644;44.990;20.288;2024-01-10T04:35:14;18.03;;;10.97;;
76714;SDS011;65644;44.990;20.288;2024-01-10T04:37:41;19.30;;;11.83;;
76714;SDS011;65644;44.990;20.288;2024-01-10T04:40:07;17.70;;;11.53;;
76714;SDS011;65644;44.990;20.288;2024-01-10T04:42:34;18.80;;;11.63;;
76714;SDS011;65644;44.990;20.288;2024-01-10T04:45:00;21.53;;;12.07;;
76714;SDS011;65644;44.990;20.288;2024-01-10T04:47:26;17.20;;;11.30;;
76714;SDS011;65644;44.990;20.288;2024-01-10T04:49:52;18.23;;;12.03;;
76714;SDS011;65644;44.990;20.288;2024-01-10T04:52:18;19.03;;;11.83;;
76714;SDS011;65644;44.990;20.288;2024-01-10T04:54:44;21.10;;;12.10;;
76714;SDS011;65644;44.990;20.288;2024-01-10T04:57:10;17.50;;;11.10;;
76714;SDS011;65644;44.990;20.288;2024-01-10T04:59:36;22.83;;;13.03;;
76714;SDS011;65644;44.990;20.288;2024-01-10T05:02:02;19.17;;;11.77;;
76714;SDS011;65644;44.990;20.288;2024-01-10T05:04:28;21.57;;;12.23;;
76714;SDS011;65644;44.990;20.288;2024-01-10T05:06:54;19.97;;;12.43;;
76714;SDS011;65644;44.990;20.288;2024-01-10T05:09:20;18.03;;;11.77;;
76714;SDS011;65644;44.990;20.288;2024-01-10T05:11:47;19.23;;;11.97;;
76714;SDS011;65644;44.990;20.288;2024-01-10T05:14:15;20.33;;;12.53;;
76714;SDS011;65644;44.990;20.288;2024-01-10T05:16:42;21.67;;;12.97;;
76714;SDS011;65644;44.990;20.288;2024-01-10T05:19:08;21.13;;;12.43;;
76714;SDS011;65644;44.990;20.288;2024-01-10T05:21:34;21.23;;;12.13;;
76714;SDS011;65644;44.990;20.288;2024-01-10T05:24:01;19.23;;;11.53;;
76714;SDS011;65644;44.990;20.288;2024-01-10T05:26:28;20.17;;;11.33;;
76714;SDS011;65644;44.990;20.288;2024-01-10T05:28:54;20.33;;;12.27;;
76714;SDS011;65644;44.990;20.288;2024-01-10T05:31:20;20.67;;;11.83;;
76714;SDS011;65644;44.990;20.288;2024-01-10T05:33:46;23.57;;;11.80;;
76714;SDS011;65644;44.990;20.288;2024-01-10T05:36:12;18.83;;;11.27;;
76714;SDS011;65644;44.990;20.288;2024-01-10T05:38:38;20.40;;;12.17;;
76714;SDS011;65644;44.990;20.288;2024-01-10T05:41:07;18.80;;;11.97;;
76714;SDS011;65644;44.990;20.288;2024-01-10T05:43:33;20.73;;;11.87;;
76714;SDS011;65644;44.990;20.288;2024-01-10T05:45:59;22.67;;;12.63;;
76714;SDS011;65644;44.990;20.288;2024-01-10T05:48:26;20.13;;;11.90;;
76714;SDS011;65644;44.990;20.288;2024-01-10T05:50:52;20.83;;;12.80;;
76714;SDS011;65644;44.990;20.288;2024-01-10T05:53:18;20.23;;;12.00;;
76714;SDS011;65644;44.990;20.288;2024-01-10T05:55:44;19.60;;;12.00;;
76714;SDS011;65644;44.990;20.288;2024-01-10T05:58:10;22.27;;;12.33;;
76714;SDS011;65644;44.990;20.288;2024-01-10T06:00:36;19.83;;;11.40;;
76714;SDS011;65644;44.990;20.288;2024-01-10T06:03:03;17.70;;;11.37;;
76714;SDS011;65644;44.990;20.288;2024-01-10T06:05:29;17.97;;;10.67;;
76714;SDS011;65644;44.990;20.288;2024-01-10T06:07:56;20.37;;;12.30;;
76714;SDS011;65644;44.990;20.288;2024-01-10T06:10:23;18.77;;;11.63;;
76714;SDS011;65644;44.990;20.288;2024-01-10T06:12:49;18.87;;;11.27;;
76714;SDS011;65644;44.990;20.288;2024-01-10T06:15:15;17.77;;;11.23;;
76714;SDS011;65644;44.990;20.288;2024-01-10T06:17:41;19.50;;;11.37;;
76714;SDS011;65644;44.990;20.288;2024-01-10T06:20:08;17.87;;;11.97;;
76714;SDS011;65644;44.990;20.288;2024-01-10T06:22:34;20.87;;;12.13;;
76714;SDS011;65644;44.990;20.288;2024-01-10T06:25:00;19.67;;;12.13;;
76714;SDS011;65644;44.990;20.288;2024-01-10T06:27:27;20.43;;;11.70;;
76714;SDS011;65644;44.990;20.288;2024-01-10T06:29:53;19.90;;;12.70;;
76714;SDS011;65644;44.990;20.288;2024-01-10T06:32:19;20.50;;;13.13;;
76714;SDS011;65644;44.990;20.288;2024-01-10T06:34:45;22.20;;;14.37;;
76714;SDS011;65644;44.990;20.288;2024-01-10T06:37:11;20.00;;;13.67;;
76714;SDS011;65644;44.990;20.288;2024-01-10T06:39:37;20.80;;;13.33;;
76714;SDS011;65644;44.990;20.288;2024-01-10T06:42:03;18.57;;;12.13;;
76714;SDS011;65644;44.990;20.288;2024-01-10T06:44:31;18.67;;;11.97;;
76714;SDS011;65644;44.990;20.288;2024-01-10T06:46:58;19.03;;;11.40;;
76714;SDS011;65644;44.990;20.288;2024-01-10T06:49:24;17.07;;;10.50;;
76714;SDS011;65644;44.990;20.288;2024-01-10T06:51:52;20.07;;;11.00;;
76714;SDS011;65644;44.990;20.288;2024-01-10T06:54:18;18.40;;;12.57;;
76714;SDS011;65644;44.990;20.288;2024-01-10T06:56:44;25.77;;;14.07;;
76714;SDS011;65644;44.990;20.288;2024-01-10T06:59:10;18.90;;;11.00;;
76714;SDS011;65644;44.990;20.288;2024-01-10T07:01:37;19.67;;;11.77;;
76714;SDS011;65644;44.990;20.288;2024-01-10T07:04:04;18.77;;;12.17;;
76714;SDS011;65644;44.990;20.288;2024-01-10T07:06:30;19.83;;;12.07;;
76714;SDS011;65644;44.990;20.288;2024-01-10T07:08:56;20.00;;;12.37;;
76714;SDS011;65644;44.990;20.288;2024-01-10T07:11:23;18.93;;;12.37;;
76714;SDS011;65644;44.990;20.288;2024-01-10T07:13:51;30.57;;;17.27;;
76714;SDS011;65644;44.990;20.288;2024-01-10T07:16:17;27.40;;;16.40;;
76714;SDS011;65644;44.990;20.288;2024-01-10T07:18:44;22.13;;;14.83;;
76714;SDS011;65644;44.990;20.288;2024-01-10T07:21:11;21.67;;;13.87;;
76714;SDS011;65644;44.990;20.288;2024-01-10T07:23:37;20.87;;;12.30;;
76714;SDS011;65644;44.990;20.288;2024-01-10T07:26:05;20.80;;;11.83;;
76714;SDS011;65644;44.990;20.288;2024-01-10T07:28:31;20.03;;;12.80;;
76714;SDS011;65644;44.990;20.288;2024-01-10T07:30:58;19.53;;;11.87;;
76714;SDS011;65644;44.990;20.288;2024-01-10T07:33:27;30.87;;;17.20;;
76714;SDS011;65644;44.990;20.288;2024-01-10T07:35:55;31.83;;;17.50;;
76714;SDS011;65644;44.990;20.288;2024-01-10T07:38:21;23.60;;;14.77;;
76714;SDS011;65644;44.990;20.288;2024-01-10T07:40:47;60.60;;;28.07;;
76714;SDS011;65644;44.990;20.288;2024-01-10T07:43:13;27.45;;;15.27;;
76714;SDS011;65644;44.990;20.288;2024-01-10T07:45:40;59.45;;;28.52;;
76714;SDS011;65644;44.990;20.288;2024-01-10T07:48:06;29.95;;;18.52;;
76714;SDS011;65644;44.990;20.288;2024-01-10T07:50:32;23.67;;;17.35;;
76714;SDS011;65644;44.990;20.288;2024-01-10T07:52:58;19.27;;;13.63;;
76714;SDS011;65644;44.990;20.288;2024-01-10T07:55:26;19.00;;;13.35;;
76714;SDS011;65644;44.990;20.288;2024-01-10T07:57:54;18.17;;;12.73;;
76714;SDS011;65644;44.990;20.288;2024-01-10T08:00:20;16.30;;;13.43;;
76714;SDS011;65644;44.990;20.288;2024-01-10T08:02:47;16.27;;;12.50;;
76714;SDS011;65644;44.990;20.288;2024-01-10T08:05:16;16.95;;;13.80;;
76714;SDS011;65644;44.990;20.288;2024-01-10T08:07:42;14.77;;;12.30;;
76714;SDS011;65644;44.990;20.288;2024-01-10T08:10:09;20.70;;;13.95;;
76714;SDS011;65644;44.990;20.288;2024-01-10T08:12:35;14.57;;;12.00;;
76714;SDS011;65644;44.990;20.288;2024-01-10T08:15:02;16.73;;;12.45;;
76714;SDS011;65644;44.990;20.288;2024-01-10T08:17:28;16.02;;;11.07;;
76714;SDS011;65644;44.990;20.288;2024-01-10T08:19:54;20.55;;;13.52;;
76714;SDS011;65644;44.990;20.288;2024-01-10T08:22:20;16.38;;;11.40;;
76714;SDS011;65644;44.990;20.288;2024-01-10T08:24:48;16.67;;;12.35;;
76714;SDS011;65644;44.990;20.288;2024-01-10T08:27:14;15.20;;;10.80;;
76714;SDS011;65644;44.990;20.288;2024-01-10T08:29:40;16.73;;;11.50;;
76714;SDS011;65644;44.990;20.288;2024-01-10T08:32:06;17.50;;;11.35;;
76714;SDS011;65644;44.990;20.288;2024-01-10T08:34:32;17.30;;;12.00;;
76714;SDS011;65644;44.990;20.288;2024-01-10T08:36:58;15.03;;;10.47;;
76714;SDS011;65644;44.990;20.288;2024-01-10T08:39:24;17.67;;;11.73;;
76714;SDS011;65644;44.990;20.288;2024-01-10T08:41:53;17.13;;;12.43;;
76714;SDS011;65644;44.990;20.288;2024-01-10T08:44:20;18.13;;;12.30;;
76714;SDS011;65644;44.990;20.288;2024-01-10T08:46:46;17.97;;;13.10;;
76714;SDS011;65644;44.990;20.288;2024-01-10T08:49:13;19.10;;;12.60;;
76714;SDS011;65644;44.990;20.288;2024-01-10T08:51:39;28.40;;;17.90;;
76714;SDS011;65644;44.990;20.288;2024-01-10T08:54:06;53.83;;;30.43;;
76714;SDS011;65644;44.990;20.288;2024-01-10T08:56:32;23.20;;;14.57;;
76714;SDS011;65644;44.990;20.288;2024-01-10T08:58:59;49.73;;;28.17;;
76714;SDS011;65644;44.990;20.288;2024-01-10T09:01:26;63.70;;;32.97;;
76714;SDS011;65644;44.990;20.288;2024-01-10T09:03:52;84.67;;;42.13;;
76714;SDS011;65644;44.990;20.288;2024-01-10T09:06:19;38.77;;;23.30;;
76714;SDS011;65644;44.990;20.288;2024-01-10T09:08:46;21.67;;;14.33;;
76714;SDS011;65644;44.990;20.288;2024-01-10T09:11:12;18.30;;;12.67;;
76714;SDS011;65644;44.990;20.288;2024-01-10T09:13:39;19.47;;;12.93;;
76714;SDS011;65644;44.990;20.288;2024-01-10T09:16:05;20.13;;;12.80;;
76714;SDS011;65644;44.990;20.288;2024-01-10T09:18:31;19.00;;;12.33;;
76714;SDS011;65644;44.990;20.288;2024-01-10T09:20:57;18.37;;;12.00;;
76714;SDS011;65644;44.990;20.288;2024-01-10T09:23:23;19.37;;;12.13;;
76714;SDS011;65644;44.990;20.288;2024-01-10T09:25:49;19.90;;;12.30;;
76714;SDS011;65644;44.990;20.288;2024-01-10T09:28:15;19.63;;;12.47;;
76714;SDS011;65644;44.990;20.288;2024-01-10T09:30:41;25.13;;;13.80;;
76714;SDS011;65644;44.990;20.288;2024-01-10T09:33:07;20.60;;;13.30;;
76714;SDS011;65644;44.990;20.288;2024-01-10T09:35:34;22.20;;;13.40;;
76714;SDS011;65644;44.990;20.288;2024-01-10T09:38:00;21.07;;;13.30;;
76714;SDS011;65644;44.990;20.288;2024-01-10T09:40:26;21.03;;;13.40;;
76714;SDS011;65644;44.990;20.288;2024-01-10T09:42:53;18.87;;;13.33;;
76714;SDS011;65644;44.990;20.288;2024-01-10T09:45:20;23.10;;;14.00;;
76714;SDS011;65644;44.990;20.288;2024-01-10T09:47:49;21.10;;;14.40;;
76714;SDS011;65644;44.990;20.288;2024-01-10T09:50:15;24.33;;;14.87;;
76714;SDS011;65644;44.990;20.288;2024-01-10T09:52:42;25.30;;;16.60;;
76714;SDS011;65644;44.990;20.288;2024-01-10T09:55:12;30.27;;;19.90;;
76714;SDS011;65644;44.990;20.288;2024-01-10T09:57:41;25.60;;;17.10;;
76714;SDS011;65644;44.990;20.288;2024-01-10T10:00:08;29.23;;;19.03;;
76714;SDS011;65644;44.990;20.288;2024-01-10T10:02:37;29.43;;;18.70;;
76714;SDS011;65644;44.990;20.288;2024-01-10T10:05:09;26.27;;;17.30;;
76714;SDS011;65644;44.990;20.288;2024-01-10T10:07:44;26.30;;;17.20;;
76714;SDS011;65644;44.990;20.288;2024-01-10T10:10:10;24.80;;;16.83;;
76714;SDS011;65644;44.990;20.288;2024-01-10T10:12:49;26.70;;;16.27;;
76714;SDS011;65644;44.990;20.288;2024-01-10T10:15:17;24.10;;;15.37;;
76714;SDS011;65644;44.990;20.288;2024-01-10T10:17:45;20.37;;;12.67;;
76714;SDS011;65644;44.990;20.288;2024-01-10T10:20:22;24.87;;;15.33;;
76714;SDS011;65644;44.990;20.288;2024-01-10T10:22:58;21.10;;;14.20;;
76714;SDS011;65644;44.990;20.288;2024-01-10T10:38:23;64.60;;;32.93;;
76714;SDS011;65644;44.990;20.288;2024-01-10T10:40:50;34.33;;;20.00;;
76714;SDS011;65644;44.990;20.288;2024-01-10T10:43:17;85.07;;;37.40;;
76714;SDS011;65644;44.990;20.288;2024-01-10T10:45:48;39.50;;;20.20;;
76714;SDS011;65644;44.990;20.288;2024-01-10T10:48:19;65.13;;;29.83;;
76714;SDS011;65644;44.990;20.288;2024-01-10T10:50:57;49.33;;;24.73;;
76714;SDS011;65644;44.990;20.288;2024-01-10T10:53:25;144.43;;;58.83;;
76714;SDS011;65644;44.990;20.288;2024-01-10T10:55:52;40.10;;;23.60;;
76714;SDS011;65644;44.990;20.288;2024-01-10T10:58:19;26.77;;;17.27;;
76714;SDS011;65644;44.990;20.288;2024-01-10T11:00:45;25.20;;;16.50;;
76714;SDS011;65644;44.990;20.288;2024-01-10T11:03:12;34.47;;;24.63;;
76714;SDS011;65644;44.990;20.288;2024-01-10T11:05:40;26.13;;;18.87;;
76714;SDS011;65644;44.990;20.288;2024-01-10T11:08:07;29.47;;;19.73;;
76714;SDS011;65644;44.990;20.288;2024-01-10T11:10:34;26.30;;;17.37;;
76714;SDS011;65644;44.990;20.288;2024-01-10T11:16:01;24.57;;;18.03;;
76714;SDS011;65644;44.990;20.288;2024-01-10T11:23:45;28.10;;;16.50;;
76714;SDS011;65644;44.990;20.288;2024-01-10T11:26:13;24.47;;;16.63;;
76714;SDS011;65644;44.990;20.288;2024-01-10T11:28:40;27.70;;;17.60;;
76714;SDS011;65644;44.990;20.288;2024-01-10T11:31:06;24.97;;;16.77;;
76714;SDS011;65644;44.990;20.288;2024-01-10T11:33:39;24.23;;;16.07;;
76714;SDS011;65644;44.990;20.288;2024-01-10T11:36:16;23.40;;;16.33;;
76714;SDS011;65644;44.990;20.288;2024-01-10T11:41:32;25.83;;;16.23;;
76714;SDS011;65644;44.990;20.288;2024-01-10T11:46:32;28.20;;;17.40;;
76714;SDS011;65644;44.990;20.288;2024-01-10T11:48:58;28.17;;;16.53;;
76714;SDS011;65644;44.990;20.288;2024-01-10T11:51:24;27.70;;;17.03;;
76714;SDS011;65644;44.990;20.288;2024-01-10T11:53:51;24.97;;;16.43;;
76714;SDS011;65644;44.990;20.288;2024-01-10T11:56:18;23.97;;;16.70;;
76714;SDS011;65644;44.990;20.288;2024-01-10T11:59:03;26.43;;;15.87;;
76714;SDS011;65644;44.990;20.288;2024-01-10T12:01:29;23.15;;;15.60;;
76714;SDS011;65644;44.990;20.288;2024-01-10T12:03:56;28.73;;;17.43;;
76714;SDS011;65644;44.990;20.288;2024-01-10T12:06:23;31.73;;;22.67;;
76714;SDS011;65644;44.990;20.288;2024-01-10T12:08:50;26.33;;;18.90;;
76714;SDS011;65644;44.990;20.288;2024-01-10T12:11:16;28.53;;;19.10;;
76714;SDS011;65644;44.990;20.288;2024-01-10T12:13:43;30.07;;;20.67;;
76714;SDS011;65644;44.990;20.288;2024-01-10T12:16:12;34.33;;;22.33;;
76714;SDS011;65644;44.990;20.288;2024-01-10T12:18:44;31.50;;;22.73;;
76714;SDS011;65644;44.990;20.288;2024-01-10T12:21:10;33.07;;;24.77;;
76714;SDS011;65644;44.990;20.288;2024-01-10T12:23:37;40.97;;;27.73;;
76714;SDS011;65644;44.990;20.288;2024-01-10T12:26:08;50.43;;;28.83;;
76714;SDS011;65644;44.990;20.288;2024-01-10T12:28:36;44.97;;;28.07;;
76714;SDS011;65644;44.990;20.288;2024-01-10T12:31:03;47.33;;;30.67;;
76714;SDS011;65644;44.990;20.288;2024-01-10T12:33:30;42.23;;;26.73;;
76714;SDS011;65644;44.990;20.288;2024-01-10T12:36:04;38.87;;;25.73;;
76714;SDS011;65644;44.990;20.288;2024-01-10T12:38:30;35.37;;;22.30;;
76714;SDS011;65644;44.990;20.288;2024-01-10T12:40:57;36.00;;;23.20;;
76714;SDS011;65644;44.990;20.288;2024-01-10T12:43:23;32.97;;;22.77;;
76714;SDS011;65644;44.990;20.288;2024-01-10T12:46:06;39.23;;;26.03;;
76714;SDS011;65644;44.990;20.288;2024-01-10T12:48:33;40.33;;;25.27;;
76714;SDS011;65644;44.990;20.288;2024-01-10T12:51:01;33.03;;;22.93;;
76714;SDS011;65644;44.990;20.288;2024-01-10T12:53:32;35.37;;;21.83;;
76714;SDS011;65644;44.990;20.288;2024-01-10T12:55:58;37.20;;;22.70;;
76714;SDS011;65644;44.990;20.288;2024-01-10T12:58:24;35.67;;;23.73;;
76714;SDS011;65644;44.990;20.288;2024-01-10T13:00:50;33.07;;;22.13;;
76714;SDS011;65644;44.990;20.288;2024-01-10T13:03:16;28.90;;;18.57;;
76714;SDS011;65644;44.990;20.288;2024-01-10T13:05:43;27.60;;;19.80;;
76714;SDS011;65644;44.990;20.288;2024-01-10T13:08:09;30.67;;;19.17;;
76714;SDS011;65644;44.990;20.288;2024-01-10T13:10:36;23.40;;;16.27;;
76714;SDS011;65644;44.990;20.288;2024-01-10T13:13:02;29.30;;;17.80;;
76714;SDS011;65644;44.990;20.288;2024-01-10T13:15:28;24.67;;;17.53;;
76714;SDS011;65644;44.990;20.288;2024-01-10T13:17:55;31.27;;;21.77;;
76714;SDS011;65644;44.990;20.288;2024-01-10T13:20:22;35.53;;;24.60;;
76714;SDS011;65644;44.990;20.288;2024-01-10T13:22:49;34.13;;;23.00;;
76714;SDS011;65644;44.990;20.288;2024-01-10T13:25:15;28.17;;;19.47;;
76714;SDS011;65644;44.990;20.288;2024-01-10T13:27:42;31.43;;;22.53;;
76714;SDS011;65644;44.990;20.288;2024-01-10T13:30:08;29.90;;;21.70;;
76714;SDS011;65644;44.990;20.288;2024-01-10T13:32:37;32.93;;;20.73;;
76714;SDS011;65644;44.990;20.288;2024-01-10T13:35:04;29.87;;;18.90;;
76714;SDS011;65644;44.990;20.288;2024-01-10T13:37:30;27.53;;;19.70;;
76714;SDS011;65644;44.990;20.288;2024-01-10T13:39:57;32.07;;;22.13;;
76714;SDS011;65644;44.990;20.288;2024-01-10T13:42:24;30.03;;;21.13;;
76714;SDS011;65644;44.990;20.288;2024-01-10T13:44:50;44.77;;;27.00;;
76714;SDS011;65644;44.990;20.288;2024-01-10T13:47:20;43.97;;;25.50;;
76714;SDS011;65644;44.990;20.288;2024-01-10T13:49:47;36.63;;;24.80;;
76714;SDS011;65644;44.990;20.288;2024-01-10T13:52:13;38.27;;;23.47;;
76714;SDS011;65644;44.990;20.288;2024-01-10T13:54:39;32.63;;;21.87;;
76714;SDS011;65644;44.990;20.288;2024-01-10T13:57:05;32.53;;;21.93;;
76714;SDS011;65644;44.990;20.288;2024-01-10T13:59:31;31.30;;;20.80;;
76714;SDS011;65644;44.990;20.288;2024-01-10T14:01:57;37.23;;;23.30;;
76714;SDS011;65644;44.990;20.288;2024-01-10T14:04:24;33.03;;;21.40;;
76714;SDS011;65644;44.990;20.288;2024-01-10T14:06:50;32.67;;;22.50;;
76714;SDS011;65644;44.990;20.288;2024-01-10T14:09:16;32.07;;;20.97;;
76714;SDS011;65644;44.990;20.288;2024-01-10T14:11:43;35.20;;;21.47;;
76714;SDS011;65644;44.990;20.288;2024-01-10T14:14:09;34.73;;;21.97;;
76714;SDS011;65644;44.990;20.288;2024-01-10T14:16:36;32.57;;;22.13;;
76714;SDS011;65644;44.990;20.288;2024-01-10T14:19:02;33.23;;;22.10;;
76714;SDS011;65644;44.990;20.288;2024-01-10T14:21:28;43.40;;;24.10;;
76714;SDS011;65644;44.990;20.288;2024-01-10T14:23:56;34.53;;;23.80;;
76714;SDS011;65644;44.990;20.288;2024-01-10T14:26:23;43.90;;;27.10;;
76714;SDS011;65644;44.990;20.288;2024-01-10T14:28:51;45.07;;;28.90;;
76714;SDS011;65644;44.990;20.288;2024-01-10T14:31:20;40.93;;;27.03;;
76714;SDS011;65644;44.990;20.288;2024-01-10T14:33:46;40.43;;;27.27;;